createdAt,value
2022-11-24T00:00:38.729Z,23.67
2022-11-24T00:01:40.313Z,23.68
2022-11-24T00:02:41.927Z,23.69
2022-11-24T00:03:45.673Z,23.67
2022-11-24T00:04:47.657Z,23.70
2022-11-24T00:05:49.166Z,23.68
2022-11-24T00:06:50.787Z,23.68
2022-11-24T00:07:52.592Z,23.67
2022-11-24T00:08:54.879Z,23.67
2022-11-24T00:09:56.414Z,23.66
2022-11-24T00:11:04.583Z,23.64
2022-11-24T00:12:06.148Z,23.68
2022-11-24T00:13:07.698Z,23.70
2022-11-24T00:14:10.162Z,23.72
2022-11-24T00:15:11.691Z,23.71
2022-11-24T00:16:16.572Z,23.71
2022-11-24T00:17:18.169Z,23.71
2022-11-24T00:18:19.684Z,23.71
2022-11-24T00:19:21.214Z,23.71
2022-11-24T00:20:22.756Z,23.71
2022-11-24T00:21:26.120Z,23.72
2022-11-24T00:22:27.649Z,23.70
2022-11-24T00:23:29.231Z,23.69
2022-11-24T00:24:31.071Z,23.70
2022-11-24T00:25:32.889Z,23.68
2022-11-24T00:26:37.319Z,23.70
2022-11-24T00:27:38.925Z,23.70
2022-11-24T00:28:41.483Z,23.70
2022-11-24T00:29:43.020Z,23.71
2022-11-24T00:30:44.630Z,23.70
2022-11-24T00:31:46.168Z,23.72
2022-11-24T00:32:47.729Z,23.72
2022-11-24T00:33:51.042Z,23.71
2022-11-24T00:34:52.569Z,23.72
2022-11-24T00:35:56.159Z,23.71
2022-11-24T00:36:57.905Z,23.72
2022-11-24T00:37:59.470Z,23.71
2022-11-24T00:39:04.253Z,23.70
2022-11-24T00:40:06.461Z,23.73
2022-11-24T00:41:08.133Z,23.72
2022-11-24T00:42:09.701Z,23.72
2022-11-24T00:43:11.241Z,23.73
2022-11-24T00:44:12.897Z,23.73
2022-11-24T00:45:14.481Z,23.72
2022-11-24T00:46:16.403Z,23.73
2022-11-24T00:47:18.080Z,23.72
2022-11-24T00:48:19.675Z,23.68
2022-11-24T00:49:21.220Z,23.68
2022-11-24T00:50:23.073Z,23.67
2022-11-24T00:51:27.960Z,23.70
2022-11-24T00:52:29.513Z,23.71
2022-11-24T00:53:31.582Z,23.72
2022-11-24T00:54:33.271Z,23.71
2022-11-24T00:55:35.008Z,23.72
2022-11-24T00:56:36.632Z,23.70
2022-11-24T00:57:38.164Z,23.72
2022-11-24T00:58:40.251Z,23.69
2022-11-24T00:59:41.763Z,23.68
2022-11-24T01:00:43.543Z,23.68
2022-11-24T01:01:45.212Z,23.71
2022-11-24T01:02:47.236Z,23.72
2022-11-24T01:03:49.137Z,23.72
2022-11-24T01:04:50.708Z,23.71
2022-11-24T01:05:52.255Z,23.72
2022-11-24T01:06:53.806Z,23.73
2022-11-24T01:07:55.428Z,23.73
2022-11-24T01:08:57.910Z,23.73
2022-11-24T01:09:59.413Z,23.71
2022-11-24T01:11:08.162Z,23.67
2022-11-24T01:12:09.653Z,23.71
2022-11-24T01:13:12.542Z,23.70
2022-11-24T01:14:14.047Z,23.71
2022-11-24T01:15:15.585Z,23.71
2022-11-24T01:16:21.836Z,23.70
2022-11-24T01:17:23.426Z,23.70
2022-11-24T01:18:24.956Z,23.70
2022-11-24T01:19:26.525Z,23.68
2022-11-24T01:20:28.059Z,23.68
2022-11-24T01:21:29.632Z,23.66
2022-11-24T01:22:31.175Z,23.67
2022-11-24T01:23:32.759Z,23.68
2022-11-24T01:24:34.409Z,23.67
2022-11-24T01:25:39.917Z,23.64
2022-11-24T01:26:42.269Z,23.67
2022-11-24T01:27:43.907Z,23.66
2022-11-24T01:28:47.349Z,23.66
2022-11-24T01:29:49.319Z,23.65
2022-11-24T01:31:01.734Z,23.61
2022-11-24T01:32:03.446Z,23.66
2022-11-24T01:33:05.190Z,23.64
2022-11-24T01:34:07.164Z,23.62
2022-11-24T01:35:09.369Z,23.63
2022-11-24T01:36:11.068Z,23.62
2022-11-24T01:37:12.652Z,23.62
2022-11-24T01:38:14.182Z,23.61
2022-11-24T01:39:15.746Z,23.60
2022-11-24T01:40:17.257Z,23.62
2022-11-24T01:41:21.268Z,23.61
2022-11-24T01:42:22.925Z,23.60
2022-11-24T01:43:24.436Z,23.60
2022-11-24T01:44:28.292Z,23.59
2022-11-24T01:45:29.795Z,23.58
2022-11-24T01:46:44.088Z,23.55
2022-11-24T01:47:45.622Z,23.56
2022-11-24T01:49:02.877Z,23.52
2022-11-24T01:50:05.272Z,23.57
2022-11-24T01:51:18.880Z,23.52
2022-11-24T01:52:36.700Z,23.50
2022-11-24T01:53:45.778Z,23.53
2022-11-24T01:54:54.899Z,23.53
2022-11-24T01:55:56.738Z,23.53
2022-11-24T01:57:05.439Z,23.51
2022-11-24T01:58:15.536Z,23.50
2022-11-24T01:59:21.104Z,23.52
2022-11-24T02:00:22.765Z,23.54
2022-11-24T02:01:25.235Z,23.52
2022-11-24T02:02:29.544Z,23.53
2022-11-24T02:03:35.681Z,23.49
2022-11-24T02:04:38.027Z,23.52
2022-11-24T02:05:46.179Z,23.48
2022-11-24T02:06:48.294Z,23.54
2022-11-24T02:07:52.158Z,23.52
2022-11-24T02:08:56.838Z,23.52
2022-11-24T02:10:05.110Z,23.51
2022-11-24T02:11:07.149Z,23.54
2022-11-24T02:12:09.527Z,23.53
2022-11-24T02:13:11.430Z,23.53
2022-11-24T02:14:16.562Z,23.52
2022-11-24T02:15:19.576Z,23.53
2022-11-24T02:16:21.143Z,23.53
2022-11-24T02:17:22.883Z,23.51
2022-11-24T02:18:24.410Z,23.51
2022-11-24T02:19:35.201Z,23.46
2022-11-24T02:20:36.959Z,23.49
2022-11-24T02:21:38.514Z,23.51
2022-11-24T02:23:05.767Z,23.45
2022-11-24T02:24:12.244Z,23.50
2022-11-24T02:25:37.463Z,23.48
2022-11-24T02:26:44.224Z,23.48
2022-11-24T02:27:50.724Z,23.49
2022-11-24T02:28:55.631Z,23.49
2022-11-24T02:29:57.217Z,23.48
2022-11-24T02:31:00.830Z,23.47
2022-11-24T02:32:06.967Z,23.46
2022-11-24T02:33:11.242Z,23.48
2022-11-24T02:34:12.744Z,23.49
2022-11-24T02:35:15.089Z,23.51
2022-11-24T02:36:16.722Z,23.50
2022-11-24T02:37:18.268Z,23.48
2022-11-24T02:38:28.650Z,23.49
2022-11-24T02:39:30.184Z,23.51
2022-11-24T02:40:32.281Z,23.49
2022-11-24T02:41:33.821Z,23.49
2022-11-24T02:42:42.808Z,23.46
2022-11-24T02:43:52.969Z,23.46
2022-11-24T02:44:58.926Z,23.48
2022-11-24T02:46:00.543Z,23.48
2022-11-24T02:47:10.353Z,23.45
2022-11-24T02:48:13.306Z,23.46
2022-11-24T02:49:16.174Z,23.49
2022-11-24T02:50:17.749Z,23.47
2022-11-24T02:51:19.528Z,23.47
2022-11-24T02:52:21.062Z,23.48
2022-11-24T02:53:22.667Z,23.49
2022-11-24T02:54:24.344Z,23.48
2022-11-24T02:55:25.934Z,23.48
2022-11-24T02:56:27.617Z,23.47
2022-11-24T02:57:29.157Z,23.47
2022-11-24T02:58:30.778Z,23.48
2022-11-24T02:59:32.439Z,23.47
2022-11-24T03:00:34.004Z,23.46
2022-11-24T03:01:35.571Z,23.44
2022-11-24T03:02:37.243Z,23.43
2022-11-24T03:03:39.043Z,23.46
2022-11-24T03:04:40.566Z,23.46
2022-11-24T03:05:42.097Z,23.47
2022-11-24T03:06:43.768Z,23.47
2022-11-24T03:07:45.414Z,23.44
2022-11-24T03:08:46.999Z,23.44
2022-11-24T03:09:48.801Z,23.46
2022-11-24T03:10:50.390Z,23.45
2022-11-24T03:11:52.083Z,23.43
2022-11-24T03:12:54.363Z,23.44
2022-11-24T03:13:55.929Z,23.44
2022-11-24T03:14:57.498Z,23.42
2022-11-24T03:15:59.086Z,23.42
2022-11-24T03:17:00.670Z,23.43
2022-11-24T03:18:02.393Z,23.42
2022-11-24T03:19:04.490Z,23.41
2022-11-24T03:20:06.482Z,23.42
2022-11-24T03:21:08.016Z,23.41
2022-11-24T03:22:09.593Z,23.41
2022-11-24T03:23:11.324Z,23.37
2022-11-24T03:24:12.920Z,23.38
2022-11-24T03:25:14.520Z,23.41
2022-11-24T03:26:18.764Z,23.40
2022-11-24T03:27:20.954Z,23.39
2022-11-24T03:28:22.495Z,23.39
2022-11-24T03:29:24.158Z,23.38
2022-11-24T03:30:25.873Z,23.37
2022-11-24T03:31:27.593Z,23.40
2022-11-24T03:32:29.587Z,23.42
2022-11-24T03:33:31.212Z,23.42
2022-11-24T03:34:33.158Z,23.41
2022-11-24T03:35:34.838Z,23.41
2022-11-24T03:36:36.377Z,23.43
2022-11-24T03:37:37.954Z,23.43
2022-11-24T03:38:39.489Z,23.45
2022-11-24T03:39:41.057Z,23.45
2022-11-24T03:40:42.603Z,23.46
2022-11-24T03:41:44.139Z,23.46
2022-11-24T03:42:45.669Z,23.45
2022-11-24T03:43:47.248Z,23.46
2022-11-24T03:44:48.761Z,23.45
2022-11-24T03:45:50.442Z,23.44
2022-11-24T03:46:52.133Z,23.44
2022-11-24T03:47:53.667Z,23.44
2022-11-24T03:48:55.188Z,23.46
2022-11-24T03:49:56.751Z,23.46
2022-11-24T03:51:00.264Z,23.44
2022-11-24T03:52:07.641Z,23.45
2022-11-24T03:53:09.515Z,23.45
2022-11-24T03:54:11.093Z,23.46
2022-11-24T03:55:12.652Z,23.43
2022-11-24T03:56:14.657Z,23.43
2022-11-24T03:57:16.180Z,23.44
2022-11-24T03:58:17.812Z,23.46
2022-11-24T03:59:19.375Z,23.45
2022-11-24T04:00:20.944Z,23.46
2022-11-24T04:01:22.576Z,23.46
2022-11-24T04:02:24.187Z,23.44
2022-11-24T04:03:26.140Z,23.45
2022-11-24T04:04:27.669Z,23.46
2022-11-24T04:05:29.854Z,23.47
2022-11-24T04:06:31.559Z,23.47
2022-11-24T04:07:33.137Z,23.46
2022-11-24T04:08:34.757Z,23.46
2022-11-24T04:09:36.295Z,23.47
2022-11-24T04:10:39.421Z,23.46
2022-11-24T04:11:59.247Z,23.46
2022-11-24T04:13:00.752Z,23.46
2022-11-24T04:14:02.284Z,23.45
2022-11-24T04:15:04.102Z,23.45
2022-11-24T04:16:06.390Z,23.45
2022-11-24T04:17:07.987Z,23.47
2022-11-24T04:18:10.661Z,23.45
2022-11-24T04:19:12.570Z,23.47
2022-11-24T04:20:15.076Z,23.45
2022-11-24T04:21:16.581Z,23.45
2022-11-24T04:22:18.098Z,23.46
2022-11-24T04:23:19.684Z,23.45
2022-11-24T04:24:21.213Z,23.46
2022-11-24T04:25:22.739Z,23.47
2022-11-24T04:26:24.321Z,23.47
2022-11-24T04:27:25.893Z,23.47
2022-11-24T04:28:27.427Z,23.47
2022-11-24T04:29:28.959Z,23.46
2022-11-24T04:30:30.518Z,23.46
2022-11-24T04:31:32.113Z,23.46
2022-11-24T04:32:33.692Z,23.46
2022-11-24T04:33:35.221Z,23.46
2022-11-24T04:34:37.069Z,23.45
2022-11-24T04:35:38.707Z,23.46
2022-11-24T04:36:41.021Z,23.45
2022-11-24T04:37:42.633Z,23.44
2022-11-24T04:39:23.202Z,23.44
2022-11-24T04:40:07.718Z,23.44
2022-11-24T04:41:09.822Z,23.45
2022-11-24T04:42:11.376Z,23.46
2022-11-24T04:43:12.897Z,23.44
2022-11-24T04:44:14.559Z,23.41
2022-11-24T04:45:16.127Z,23.41
2022-11-24T04:46:17.826Z,23.41
2022-11-24T04:47:22.141Z,23.41
2022-11-24T04:48:23.695Z,23.41
2022-11-24T04:49:25.235Z,23.39
2022-11-24T04:50:26.818Z,23.38
2022-11-24T04:51:28.324Z,23.37
2022-11-24T04:52:30.508Z,23.37
2022-11-24T04:53:32.137Z,23.38
2022-11-24T04:54:33.875Z,23.39
2022-11-24T04:55:38.677Z,23.37
2022-11-24T04:56:41.554Z,23.35
2022-11-24T04:57:43.088Z,23.33
2022-11-24T04:58:47.557Z,23.35
2022-11-24T04:59:50.188Z,23.36
2022-11-24T05:00:51.735Z,23.37
2022-11-24T05:01:53.336Z,23.39
2022-11-24T05:02:55.311Z,23.38
2022-11-24T05:03:57.421Z,23.38
2022-11-24T05:04:59.007Z,23.39
2022-11-24T05:06:00.610Z,23.37
2022-11-24T05:07:02.188Z,23.37
2022-11-24T05:08:03.984Z,23.36
2022-11-24T05:09:06.838Z,23.34
2022-11-24T05:10:27.362Z,23.36
2022-11-24T05:11:28.904Z,23.35
2022-11-24T05:12:31.338Z,23.35
2022-11-24T05:13:33.781Z,23.35
2022-11-24T05:14:35.537Z,23.35
2022-11-24T05:15:38.842Z,23.35
2022-11-24T05:16:40.757Z,23.36
2022-11-24T05:17:42.391Z,23.34
2022-11-24T05:18:43.965Z,23.36
2022-11-24T05:19:45.524Z,23.36
2022-11-24T05:20:47.068Z,23.35
2022-11-24T05:21:48.633Z,23.37
2022-11-24T05:22:50.242Z,23.33
2022-11-24T05:23:51.855Z,23.30
2022-11-24T05:24:53.515Z,23.29
2022-11-24T05:26:03.472Z,23.28
2022-11-24T05:27:05.042Z,23.29
2022-11-24T05:28:11.179Z,23.28
2022-11-24T05:29:12.839Z,23.28
2022-11-24T05:30:14.572Z,23.27
2022-11-24T05:31:16.222Z,23.27
2022-11-24T05:32:17.864Z,23.28
2022-11-24T05:33:20.209Z,23.27
2022-11-24T05:34:21.915Z,23.27
2022-11-24T05:35:24.044Z,23.27
2022-11-24T05:36:44.177Z,23.29
2022-11-24T05:37:45.841Z,23.28
2022-11-24T05:38:47.398Z,23.29
2022-11-24T05:39:48.945Z,23.29
2022-11-24T05:40:50.500Z,23.28
2022-11-24T05:41:52.274Z,23.28
2022-11-24T05:42:53.849Z,23.27
2022-11-24T05:43:55.366Z,23.29
2022-11-24T05:44:57.563Z,23.28
2022-11-24T05:46:00.530Z,23.27
2022-11-24T05:47:02.106Z,23.27
2022-11-24T05:48:06.124Z,23.28
2022-11-24T05:49:07.703Z,23.29
2022-11-24T05:50:11.876Z,23.28
2022-11-24T05:51:13.516Z,23.29
2022-11-24T05:52:15.546Z,23.28
2022-11-24T05:53:17.043Z,23.28
2022-11-24T05:54:18.626Z,23.27
2022-11-24T05:55:20.183Z,23.27
2022-11-24T05:56:21.723Z,23.28
2022-11-24T05:57:23.274Z,23.28
2022-11-24T05:58:24.825Z,23.28
2022-11-24T05:59:26.342Z,23.27
2022-11-24T06:00:29.434Z,23.26
2022-11-24T06:01:31.051Z,23.28
2022-11-24T06:02:32.847Z,23.28
2022-11-24T06:03:34.712Z,23.27
2022-11-24T06:04:37.136Z,23.27
2022-11-24T06:05:39.295Z,23.26
2022-11-24T06:06:40.937Z,23.26
2022-11-24T06:07:42.654Z,23.25
2022-11-24T06:08:44.284Z,23.27
2022-11-24T06:09:45.985Z,23.28
2022-11-24T06:10:47.521Z,23.29
2022-11-24T06:11:49.677Z,23.29
2022-11-24T06:12:51.397Z,23.30
2022-11-24T06:13:52.975Z,23.29
2022-11-24T06:14:54.724Z,23.28
2022-11-24T06:15:59.531Z,23.28
2022-11-24T06:17:01.485Z,23.30
2022-11-24T06:18:03.619Z,23.30
2022-11-24T06:19:05.224Z,23.28
2022-11-24T06:20:08.107Z,23.28
2022-11-24T06:21:11.317Z,23.28
2022-11-24T06:22:13.520Z,23.29
2022-11-24T06:23:15.102Z,23.29
2022-11-24T06:24:16.669Z,23.30
2022-11-24T06:25:18.338Z,23.30
2022-11-24T06:26:20.213Z,23.29
2022-11-24T06:27:21.828Z,23.29
2022-11-24T06:28:23.359Z,23.30
2022-11-24T06:29:24.931Z,23.28
2022-11-24T06:30:26.481Z,23.27
2022-11-24T06:31:28.145Z,23.28
2022-11-24T06:32:29.712Z,23.27
2022-11-24T06:33:32.940Z,23.28
2022-11-24T06:34:34.774Z,23.27
2022-11-24T06:35:36.514Z,23.27
2022-11-24T06:36:39.248Z,23.27
2022-11-24T06:37:41.163Z,23.26
2022-11-24T06:38:42.801Z,23.28
2022-11-24T06:39:44.371Z,23.29
2022-11-24T06:40:46.722Z,23.28
2022-11-24T06:41:50.294Z,23.27
2022-11-24T06:42:52.670Z,23.28
2022-11-24T06:43:54.346Z,23.28
2022-11-24T06:44:55.928Z,23.28
2022-11-24T06:45:57.780Z,23.28
2022-11-24T06:46:59.600Z,23.28
2022-11-24T06:48:01.153Z,23.29
2022-11-24T06:49:02.980Z,23.29
2022-11-24T06:50:05.083Z,23.27
2022-11-24T06:51:08.526Z,23.28
2022-11-24T06:52:10.297Z,23.29
2022-11-24T06:53:12.732Z,23.29
2022-11-24T06:54:16.640Z,23.32
2022-11-24T06:55:18.221Z,23.32
2022-11-24T06:56:20.747Z,23.32
2022-11-24T06:57:22.321Z,23.31
2022-11-24T06:58:23.834Z,23.31
2022-11-24T06:59:26.555Z,23.32
2022-11-24T07:00:29.436Z,23.31
2022-11-24T07:01:31.181Z,23.31
2022-11-24T07:02:32.847Z,23.30
2022-11-24T07:03:34.429Z,23.32
2022-11-24T07:04:36.233Z,23.30
2022-11-24T07:05:38.114Z,23.31
2022-11-24T07:06:42.686Z,23.30
2022-11-24T07:07:44.412Z,23.31
2022-11-24T07:08:46.419Z,23.31
2022-11-24T07:09:47.982Z,23.31
2022-11-24T07:10:49.525Z,23.34
2022-11-24T07:11:51.103Z,23.32
2022-11-24T07:12:52.743Z,23.34
2022-11-24T07:13:59.619Z,23.32
2022-11-24T07:15:01.793Z,23.34
2022-11-24T07:16:17.227Z,23.30
2022-11-24T07:17:18.783Z,23.33
2022-11-24T07:18:20.296Z,23.32
2022-11-24T07:19:25.111Z,23.32
2022-11-24T07:20:27.090Z,23.33
2022-11-24T07:21:30.587Z,23.35
2022-11-24T07:22:32.286Z,23.32
2022-11-24T07:23:33.883Z,23.34
2022-11-24T07:24:35.579Z,23.34
2022-11-24T07:25:37.301Z,23.34
2022-11-24T07:26:40.113Z,23.33
2022-11-24T07:27:41.680Z,23.32
2022-11-24T07:28:43.242Z,23.33
2022-11-24T07:29:44.755Z,23.32
2022-11-24T07:30:46.291Z,23.32
2022-11-24T07:31:47.909Z,23.35
2022-11-24T07:32:49.496Z,23.33
2022-11-24T07:33:53.101Z,23.33
2022-11-24T07:34:54.624Z,23.34
2022-11-24T07:35:59.659Z,23.32
2022-11-24T07:37:01.195Z,23.36
2022-11-24T07:38:02.718Z,23.37
2022-11-24T07:39:06.945Z,23.37
2022-11-24T07:40:09.350Z,23.38
2022-11-24T07:41:12.993Z,23.38
2022-11-24T07:42:14.533Z,23.38
2022-11-24T07:43:20.205Z,23.37
2022-11-24T07:44:22.027Z,23.38
2022-11-24T07:45:23.578Z,23.37
2022-11-24T07:46:25.230Z,23.36
2022-11-24T07:47:26.785Z,23.36
2022-11-24T07:48:28.358Z,23.37
2022-11-24T07:49:29.912Z,23.37
2022-11-24T07:50:31.472Z,23.38
2022-11-24T07:51:33.337Z,23.39
2022-11-24T07:52:34.907Z,23.39
2022-11-24T07:53:37.557Z,23.41
2022-11-24T07:54:39.135Z,23.41
2022-11-24T07:55:40.850Z,23.40
2022-11-24T07:56:42.384Z,23.41
2022-11-24T07:57:44.093Z,23.39
2022-11-24T07:58:51.204Z,23.41
2022-11-24T07:59:54.180Z,23.42
2022-11-24T08:00:56.144Z,23.41
2022-11-24T08:01:57.760Z,23.40
2022-11-24T08:02:59.349Z,23.43
2022-11-24T08:04:02.076Z,23.43
2022-11-24T08:05:03.800Z,23.43
2022-11-24T08:07:27.276Z,23.45
2022-11-24T08:08:33.392Z,23.43
2022-11-24T08:09:34.929Z,23.44
2022-11-24T08:10:36.489Z,23.44
2022-11-24T08:11:38.081Z,23.44
2022-11-24T08:12:41.000Z,23.42
2022-11-24T08:13:43.561Z,23.42
2022-11-24T08:14:45.119Z,23.44
2022-11-24T08:15:46.690Z,23.44
2022-11-24T08:16:48.351Z,23.44
2022-11-24T08:17:49.951Z,23.45
2022-11-24T08:18:53.812Z,23.44
2022-11-24T08:19:55.370Z,23.42
2022-11-24T08:21:00.337Z,23.41
2022-11-24T08:22:01.912Z,23.44
2022-11-24T08:23:03.563Z,23.42
2022-11-24T08:24:05.624Z,23.42
2022-11-24T08:25:07.808Z,23.44
2022-11-24T08:26:15.981Z,23.42
2022-11-24T08:27:18.939Z,23.43
2022-11-24T08:28:21.206Z,23.44
2022-11-24T08:29:22.840Z,23.43
2022-11-24T08:30:24.552Z,23.43
2022-11-24T08:31:33.019Z,23.46
2022-11-24T08:32:35.059Z,23.45
2022-11-24T08:33:37.170Z,23.46
2022-11-24T08:34:39.143Z,23.45
2022-11-24T08:35:40.753Z,23.45
2022-11-24T08:36:42.309Z,23.44
2022-11-24T08:37:44.117Z,23.42
2022-11-24T08:38:46.328Z,23.42
2022-11-24T08:39:47.921Z,23.42
2022-11-24T08:40:49.477Z,23.41
2022-11-24T08:41:51.092Z,23.43
2022-11-24T08:42:56.817Z,23.43
2022-11-24T08:43:58.628Z,23.43
2022-11-24T08:45:04.974Z,23.43
2022-11-24T08:46:20.193Z,23.47
2022-11-24T08:47:21.799Z,23.46
2022-11-24T08:48:23.313Z,23.45
2022-11-24T08:49:24.945Z,23.46
2022-11-24T08:50:26.718Z,23.45
2022-11-24T08:51:28.806Z,23.46
2022-11-24T08:52:30.582Z,23.45
2022-11-24T08:53:32.061Z,23.46
2022-11-24T08:54:33.881Z,23.45
2022-11-24T08:55:36.753Z,23.46
2022-11-24T08:56:38.304Z,23.45
2022-11-24T08:57:39.855Z,23.44
2022-11-24T08:58:42.288Z,23.45
2022-11-24T08:59:43.955Z,23.44
2022-11-24T09:00:45.532Z,23.46
2022-11-24T09:01:47.273Z,23.42
2022-11-24T09:02:58.777Z,23.40
2022-11-24T09:04:00.587Z,23.47
2022-11-24T09:05:02.332Z,23.45
2022-11-24T09:06:04.053Z,23.45
2022-11-24T09:07:06.114Z,23.44
2022-11-24T09:08:07.648Z,23.45
2022-11-24T09:09:10.303Z,23.44
2022-11-24T09:10:12.170Z,23.44
2022-11-24T09:11:15.180Z,23.45
2022-11-24T09:12:16.803Z,23.46
2022-11-24T09:13:18.540Z,23.45
2022-11-24T09:14:20.142Z,23.46
2022-11-24T09:15:21.988Z,23.46
2022-11-24T09:16:26.558Z,23.46
2022-11-24T09:17:28.347Z,23.47
2022-11-24T09:18:30.567Z,23.47
2022-11-24T09:19:32.789Z,23.48
2022-11-24T09:20:34.600Z,23.47
2022-11-24T09:21:39.310Z,23.47
2022-11-24T09:22:42.994Z,23.48
2022-11-24T09:23:46.136Z,23.47
2022-11-24T09:24:47.854Z,23.45
2022-11-24T09:25:49.452Z,23.46
2022-11-24T09:26:50.998Z,23.46
2022-11-24T09:27:52.650Z,23.47
2022-11-24T09:28:55.873Z,23.47
2022-11-24T09:29:57.418Z,23.49
2022-11-24T09:31:06.569Z,23.46
2022-11-24T09:32:08.146Z,23.49
2022-11-24T09:33:09.770Z,23.50
2022-11-24T09:34:14.772Z,23.49
2022-11-24T09:35:16.520Z,23.51
2022-11-24T09:36:19.005Z,23.51
2022-11-24T09:37:20.571Z,23.52
2022-11-24T09:38:22.954Z,23.50
2022-11-24T09:39:24.673Z,23.52
2022-11-24T09:40:26.845Z,23.51
2022-11-24T09:41:50.279Z,23.46
2022-11-24T09:43:03.025Z,23.50
2022-11-24T09:44:12.942Z,23.53
2022-11-24T09:46:03.809Z,23.49
2022-11-24T09:47:03.696Z,23.53
2022-11-24T09:48:15.640Z,23.51
2022-11-24T09:49:28.232Z,23.52
2022-11-24T09:50:33.920Z,23.51
2022-11-24T09:51:38.007Z,23.53
2022-11-24T09:52:47.082Z,23.51
2022-11-24T09:53:54.487Z,23.52
2022-11-24T09:55:01.179Z,23.51
2022-11-24T09:56:15.599Z,23.50
2022-11-24T09:57:20.188Z,23.52
2022-11-24T09:58:32.473Z,23.52
2022-11-24T09:59:34.313Z,23.51
2022-11-24T10:00:37.423Z,23.51
2022-11-24T10:01:41.888Z,23.49
2022-11-24T10:02:47.912Z,23.51
2022-11-24T10:03:54.090Z,23.50
2022-11-24T10:04:56.677Z,23.53
2022-11-24T10:06:01.388Z,23.53
2022-11-24T10:07:05.630Z,23.54
2022-11-24T10:08:22.385Z,23.49
2022-11-24T10:09:32.089Z,23.53
2022-11-24T10:11:00.125Z,23.47
2022-11-24T10:12:13.753Z,23.52
2022-11-24T10:13:18.133Z,23.53
2022-11-24T10:14:25.608Z,23.53
2022-11-24T10:15:51.984Z,23.48
2022-11-24T10:17:06.110Z,23.48
2022-11-24T10:18:22.683Z,23.46
2022-11-24T10:19:36.421Z,23.51
2022-11-24T10:20:41.736Z,23.48
2022-11-24T10:22:08.265Z,23.44
2022-11-24T10:23:39.712Z,23.48
2022-11-24T10:24:56.858Z,23.51
2022-11-24T10:26:00.489Z,23.52
2022-11-24T10:27:23.922Z,23.49
2022-11-24T10:28:40.667Z,23.49
2022-11-24T10:29:43.947Z,23.49
2022-11-24T10:30:45.605Z,23.50
2022-11-24T10:31:52.253Z,23.47
2022-11-24T10:33:01.442Z,23.49
2022-11-24T10:34:32.580Z,23.45
2022-11-24T10:35:45.397Z,23.50
2022-11-24T10:37:03.186Z,23.54
2022-11-24T10:38:16.573Z,23.48
2022-11-24T10:39:29.146Z,23.51
2022-11-24T10:41:05.800Z,23.50
2022-11-24T10:42:16.169Z,23.53
2022-11-24T10:43:17.732Z,23.52
2022-11-24T10:44:19.299Z,23.53
2022-11-24T10:45:22.385Z,23.49
2022-11-24T10:46:27.261Z,23.46
2022-11-24T10:47:30.283Z,23.50
2022-11-24T10:48:40.536Z,23.47
2022-11-24T10:49:47.105Z,23.49
2022-11-24T10:50:48.757Z,23.50
2022-11-24T10:52:06.121Z,23.46
2022-11-24T10:53:25.700Z,23.47
2022-11-24T10:54:27.955Z,23.54
2022-11-24T10:55:54.468Z,23.46
2022-11-24T10:56:56.141Z,23.52
2022-11-24T10:58:15.843Z,23.45
2022-11-24T10:59:34.441Z,23.47
2022-11-24T11:00:36.760Z,23.54
2022-11-24T11:01:38.423Z,23.55
2022-11-24T11:02:40.596Z,23.55
2022-11-24T11:03:55.027Z,23.49
2022-11-24T11:04:56.856Z,23.54
2022-11-24T11:06:13.234Z,23.48
2022-11-24T11:07:20.753Z,23.49
2022-11-24T11:08:25.277Z,23.53
2022-11-24T11:09:26.872Z,23.53
2022-11-24T11:10:28.429Z,23.55
2022-11-24T11:11:30.373Z,23.53
2022-11-24T11:12:47.646Z,23.55
2022-11-24T11:14:00.077Z,23.55
2022-11-24T11:15:26.906Z,23.51
2022-11-24T11:16:39.123Z,23.53
2022-11-24T11:17:44.964Z,23.52
2022-11-24T11:18:49.516Z,23.52
2022-11-24T11:19:58.412Z,23.55
2022-11-24T11:21:03.984Z,23.55
2022-11-24T11:22:11.280Z,23.54
2022-11-24T11:23:26.889Z,23.51
2022-11-24T11:24:28.917Z,23.56
2022-11-24T11:25:35.754Z,23.52
2022-11-24T11:26:38.763Z,23.55
2022-11-24T11:27:42.019Z,23.57
2022-11-24T11:28:57.726Z,23.52
2022-11-24T11:31:40.191Z,23.58
2022-11-24T11:34:29.835Z,23.59
2022-11-24T11:35:33.671Z,23.58
2022-11-24T11:36:39.519Z,23.57
2022-11-24T11:37:41.597Z,23.59
2022-11-24T11:38:45.355Z,23.58
2022-11-24T11:39:51.654Z,23.53
2022-11-24T11:40:53.611Z,23.53
2022-11-24T11:42:37.929Z,23.49
2022-11-24T11:43:41.082Z,23.57
2022-11-24T11:45:06.559Z,23.53
2022-11-24T11:46:08.127Z,23.57
2022-11-24T11:47:26.928Z,23.50
2022-11-24T11:48:43.171Z,23.51
2022-11-24T11:49:47.671Z,23.54
2022-11-24T11:51:22.341Z,23.52
2022-11-24T11:52:23.652Z,23.53
2022-11-24T11:53:47.199Z,23.50
2022-11-24T11:55:26.979Z,23.48
2022-11-24T11:56:33.052Z,23.55
2022-11-24T11:57:43.323Z,23.52
2022-11-24T11:58:50.914Z,23.51
2022-11-24T12:00:16.251Z,23.47
2022-11-24T12:01:37.030Z,23.49
2022-11-24T12:02:54.334Z,23.51
2022-11-24T12:04:22.197Z,23.56
2022-11-24T12:05:29.360Z,23.54
2022-11-24T12:06:51.094Z,23.53
2022-11-24T12:08:13.407Z,23.54
2022-11-24T12:09:26.821Z,23.56
2022-11-24T12:11:00.312Z,23.54
2022-11-24T12:12:16.804Z,23.58
2022-11-24T12:13:33.357Z,23.54
2022-11-24T12:15:11.127Z,23.53
2022-11-24T12:16:41.665Z,23.56
2022-11-24T12:18:04.314Z,23.52
2022-11-24T12:19:33.167Z,23.51
2022-11-24T12:21:13.149Z,23.52
2022-11-24T12:22:39.809Z,23.52
2022-11-24T12:23:53.362Z,23.53
2022-11-24T12:25:03.430Z,23.52
2022-11-24T12:26:24.648Z,23.48
2022-11-24T12:27:44.125Z,23.50
2022-11-24T12:29:07.855Z,23.50
2022-11-24T12:30:13.372Z,23.51
2022-11-24T12:31:38.142Z,23.55
2022-11-24T12:33:04.465Z,23.51
2022-11-24T12:34:16.235Z,23.49
2022-11-24T12:35:29.872Z,23.51
2022-11-24T12:37:05.237Z,23.49
2022-11-24T12:38:18.917Z,23.49
2022-11-24T12:39:26.292Z,23.53
2022-11-24T12:40:47.281Z,23.50
2022-11-24T12:41:58.399Z,23.52
2022-11-24T12:43:19.329Z,23.47
2022-11-24T12:44:29.647Z,23.49
2022-11-24T12:45:31.167Z,23.53
2022-11-24T12:46:35.730Z,23.53
2022-11-24T12:48:12.829Z,23.48
2022-11-24T12:49:29.767Z,23.55
2022-11-24T12:50:38.931Z,23.50
2022-11-24T12:51:45.071Z,23.52
2022-11-24T12:53:10.625Z,23.55
2022-11-24T12:54:19.044Z,23.54
2022-11-24T12:55:23.204Z,23.56
2022-11-24T12:56:40.343Z,23.54
2022-11-24T12:57:50.280Z,23.52
2022-11-24T12:59:05.486Z,23.50
2022-11-24T13:00:16.664Z,23.53
2022-11-24T13:01:59.275Z,23.48
2022-11-24T13:03:17.669Z,23.53
2022-11-24T13:04:41.149Z,23.50
2022-11-24T13:05:51.662Z,23.49
2022-11-24T13:07:03.409Z,23.52
2022-11-24T13:08:06.003Z,23.54
2022-11-24T13:09:09.869Z,23.54
2022-11-24T13:10:40.489Z,23.50
2022-11-24T13:11:53.294Z,23.54
2022-11-24T13:13:06.051Z,23.58
2022-11-24T13:14:21.106Z,23.52
2022-11-24T13:15:44.760Z,23.56
2022-11-24T13:17:28.097Z,23.53
2022-11-24T13:18:59.523Z,23.52
2022-11-24T13:20:20.592Z,23.51
2022-11-24T13:21:31.016Z,23.52
2022-11-24T13:22:32.753Z,23.53
2022-11-24T13:23:34.575Z,23.52
2022-11-24T13:24:38.992Z,23.50
2022-11-24T13:25:40.863Z,23.53
2022-11-24T13:26:42.389Z,23.52
2022-11-24T13:27:46.201Z,23.53
2022-11-24T13:29:13.007Z,23.49
2022-11-24T13:30:35.696Z,23.50
2022-11-24T13:31:37.321Z,23.55
2022-11-24T13:32:38.895Z,23.53
2022-11-24T13:33:40.537Z,23.49
2022-11-24T13:34:49.792Z,23.50
2022-11-24T13:36:04.035Z,23.45
2022-11-24T13:37:31.459Z,23.45
2022-11-24T13:38:45.908Z,23.47
2022-11-24T13:39:50.591Z,23.52
2022-11-24T13:41:21.007Z,23.53
2022-11-24T13:42:41.554Z,23.54
2022-11-24T13:43:35.638Z,23.55
2022-11-24T13:44:50.393Z,23.54
2022-11-24T13:45:53.810Z,23.56
2022-11-24T13:47:05.120Z,23.52
2022-11-24T13:48:28.389Z,23.50
2022-11-24T13:49:46.573Z,23.53
2022-11-24T13:50:51.068Z,23.54
2022-11-24T13:51:57.025Z,23.55
2022-11-24T13:53:12.838Z,23.50
2022-11-24T13:54:15.272Z,23.56
2022-11-24T13:55:16.901Z,23.56
2022-11-24T13:56:18.439Z,23.58
2022-11-24T13:57:38.977Z,23.51
2022-11-24T13:58:43.754Z,23.56
2022-11-24T13:59:45.431Z,23.56
2022-11-24T14:01:04.795Z,23.51
2022-11-24T14:02:21.540Z,23.51
2022-11-24T14:03:29.316Z,23.54
2022-11-24T14:04:33.254Z,23.59
2022-11-24T14:05:39.993Z,23.55
2022-11-24T14:06:43.823Z,23.55
2022-11-24T14:07:47.292Z,23.56
2022-11-24T14:08:49.103Z,23.54
2022-11-24T14:09:52.065Z,23.54